Terminal Aerodrome Forecast
Issued by NWS

Home | Current Version | Previous Version | Text Only | Print | Product List | Glossary On
Versions: 1 2 3 4 5 6 7 8 9 10 11 12 13 14 15 16 17 18
789
FTUS44 KTSA 220712 AAA
TAFFYV
TAF AMD
KFYV 220712Z 2207/2306 00000KT P6SM VCSH OVC050
      TEMPO 2207/2209 3SM -TSRA BR OVC008CB
     FM220900 VRB03KT 3SM -RA BR OVC007
     FM221500 02011KT 5SM -RA BR OVC007
     FM222000 35012KT 5SM BR OVC015=

USA.gov is the U.S. government's official web portal to all federal, state and local government web resources and services.